Time;durP1;ratioP1;P1;durP2;ratioP2;P2;SDS_P1;SDS_P2;PMS_P1;PMS_P2;Temp;Humidity;BMP_temperature;BMP_pressure;BME280_temperature;BME280_humidity;BME280_pressure;Samples;Min_cycle;Max_cycle;Signal;HPM_P1;HPM_P2
2021/04/15 00:00:05;;;;;;;4.65;2.00;;;;;;;;;;5058184;28;20574;-63
2021/04/15 00:02:50;;;;;;;2.60;1.52;;;;;;;;;;5074580;28;20099;-63
2021/04/15 00:05:35;;;;;;;5.78;1.70;;;;;;;;;;5074178;28;20044;-63
2021/04/15 00:08:21;;;;;;;4.72;2.22;;;;;;;;;;5057527;28;20434;-64
2021/04/15 00:11:07;;;;;;;3.40;1.70;;;;;;;;;;5074125;28;20063;-63
2021/04/15 00:13:53;;;;;;;4.25;1.70;;;;;;;;;;5071999;28;20430;-64
2021/04/15 00:16:38;;;;;;;5.68;1.95;;;;;;;;;;5074017;28;20048;-64
2021/04/15 00:19:23;;;;;;;5.57;2.40;;;;;;;;;;5086028;28;20048;-64
2021/04/15 00:22:10;;;;;;;9.38;2.75;;;;;;;;;;5074207;28;20056;-64
2021/04/15 00:24:55;;;;;;;5.80;2.65;;;;;;;;;;5073984;28;20044;-64
2021/04/15 00:27:40;;;;;;;6.63;2.33;;;;;;;;;;5073954;28;20628;-64
2021/04/15 00:30:26;;;;;;;3.47;1.90;;;;;;;;;;5072750;28;20044;-64
2021/04/15 00:33:11;;;;;;;6.38;1.73;;;;;;;;;;5073778;28;20051;-64
2021/04/15 00:35:57;;;;;;;5.13;2.20;;;;;;;;;;5073839;28;20054;-64
2021/04/15 00:38:42;;;;;;;4.70;1.90;;;;;;;;;;5073616;28;20490;-64
2021/04/15 00:41:27;;;;;;;4.03;2.08;;;;;;;;;;5072319;28;20486;-64
2021/04/15 00:44:13;;;;;;;5.38;2.33;;;;;;;;;;5073494;28;20491;-64
2021/04/15 00:46:59;;;;;;;5.55;2.88;;;;;;;;;;5073698;28;20509;-64
2021/04/15 00:49:54;;;;;;;7.57;2.97;;;;;;;;;;5057588;28;20059;-64
2021/04/15 00:52:40;;;;;;;6.18;2.45;;;;;;;;;;5058657;28;20478;-64
2021/04/15 00:55:45;;;;;;;6.93;3.58;;;;;;;;;;5058377;28;20044;-64
2021/04/15 00:58:30;;;;;;;8.80;3.97;;;;;;;;;;5073625;28;20137;-64
2021/04/15 01:01:16;;;;;;;4.90;2.95;;;;;;;;;;5072421;28;20065;-64
2021/04/15 01:04:02;;;;;;;7.03;3.05;;;;;;;;;;5058195;28;20051;-64
2021/04/15 01:06:47;;;;;;;6.07;3.38;;;;;;;;;;5073075;28;20055;-64
2021/04/15 01:09:33;;;;;;;9.20;4.00;;;;;;;;;;5072979;28;20498;-64
2021/04/15 01:12:22;;;;;;;8.00;3.72;;;;;;;;;;5054507;28;20068;-64
2021/04/15 01:15:27;;;;;;;8.88;3.67;;;;;;;;;;5072837;28;20068;-64
2021/04/15 01:18:20;;;;;;;4.00;2.30;;;;;;;;;;5042710;28;20048;-64
2021/04/15 01:21:24;;;;;;;5.53;2.75;;;;;;;;;;5056415;28;20383;-64
2021/04/15 01:24:19;;;;;;;7.38;3.38;;;;;;;;;;5072748;28;20043;-64
2021/04/15 01:27:13;;;;;;;6.68;3.28;;;;;;;;;;5071752;28;20044;-64
2021/04/15 01:30:17;;;;;;;7.85;3.55;;;;;;;;;;5072629;28;20505;-64
2021/04/15 01:33:06;;;;;;;4.70;2.45;;;;;;;;;;5071936;28;20044;-64
2021/04/15 01:35:52;;;;;;;5.55;2.78;;;;;;;;;;5057730;28;20040;-64
2021/04/15 01:38:52;;;;;;;5.07;3.00;;;;;;;;;;5058611;28;20437;-64
2021/04/15 01:41:40;;;;;;;8.07;2.83;;;;;;;;;;5057430;28;20116;-64
2021/04/15 01:44:40;;;;;;;9.18;3.35;;;;;;;;;;5057367;28;20049;-64
2021/04/15 01:47:27;;;;;;;6.78;3.58;;;;;;;;;;5057580;28;20056;-64
2021/04/15 01:50:17;;;;;;;4.72;3.30;;;;;;;;;;5057297;28;20571;-64
2021/04/15 01:53:05;;;;;;;4.75;2.47;;;;;;;;;;5056187;28;20036;-64
2021/04/15 01:55:52;;;;;;;6.82;3.03;;;;;;;;;;5057216;28;20045;-64
2021/04/15 01:58:39;;;;;;;12.60;4.35;;;;;;;;;;5057292;28;20049;-64
2021/04/15 02:01:24;;;;;;;17.92;5.35;;;;;;;;;;5057048;28;20040;-64
2021/04/15 02:04:14;;;;;;;17.08;5.35;;;;;;;;;;5056013;28;20052;-64
2021/04/15 02:07:01;;;;;;;9.13;3.72;;;;;;;;;;5071761;28;20052;-64
2021/04/15 02:09:47;;;;;;;5.57;3.13;;;;;;;;;;5057055;28;20560;-63
2021/04/15 02:12:32;;;;;;;9.25;3.55;;;;;;;;;;5057120;28;20414;-63
2021/04/15 02:15:26;;;;;;;71.00;8.38;;;;;;;;;;5055235;28;20075;-63
2021/04/15 02:18:11;;;;;;;65.80;8.68;;;;;;;;;;5057199;28;20044;-63
2021/04/15 02:20:58;;;;;;;23.17;6.63;;;;;;;;;;5037754;28;20041;-63
2021/04/15 02:23:47;;;;;;;26.02;6.28;;;;;;;;;;5055515;28;20493;-63
2021/04/15 02:26:34;;;;;;;10.20;4.93;;;;;;;;;;5072160;28;20128;-63
2021/04/15 02:29:24;;;;;;;11.65;5.00;;;;;;;;;;5071865;28;20558;-63
2021/04/15 02:32:13;;;;;;;12.50;5.15;;;;;;;;;;5071378;28;20052;-63
2021/04/15 02:35:00;;;;;;;16.05;5.47;;;;;;;;;;5056096;28;20536;-63
2021/04/15 02:37:47;;;;;;;13.25;5.35;;;;;;;;;;5055764;28;20052;-63
2021/04/15 02:40:33;;;;;;;14.15;4.95;;;;;;;;;;5056108;28;20119;-63
2021/04/15 02:43:26;;;;;;;6.28;3.75;;;;;;;;;;5057169;28;20557;-63
2021/04/15 02:46:18;;;;;;;9.02;3.40;;;;;;;;;;5054828;28;20044;-63
2021/04/15 02:49:03;;;;;;;9.40;3.30;;;;;;;;;;5057802;28;20053;-63
2021/04/15 02:51:59;;;;;;;5.50;2.90;;;;;;;;;;5058296;28;20040;-63
2021/04/15 02:54:46;;;;;;;4.65;2.70;;;;;;;;;;5057351;28;20078;-63
2021/04/15 02:57:35;;;;;;;10.27;4.45;;;;;;;;;;5059068;28;20052;-63
2021/04/15 03:00:21;;;;;;;10.98;5.30;;;;;;;;;;5073162;28;20406;-63
2021/04/15 03:03:08;;;;;;;14.27;6.13;;;;;;;;;;5058813;28;20127;-63
2021/04/15 03:06:16;;;;;;;8.60;4.30;;;;;;;;;;5057201;28;20399;-62
2021/04/15 03:09:04;;;;;;;13.70;5.40;;;;;;;;;;5059121;28;20491;-62
2021/04/15 03:11:52;;;;;;;7.38;3.75;;;;;;;;;;5074303;28;20558;-63
2021/04/15 03:14:42;;;;;;;7.63;3.80;;;;;;;;;;5061150;28;20041;-63
2021/04/15 03:17:28;;;;;;;6.40;3.33;;;;;;;;;;5069747;28;20048;-63
2021/04/15 03:20:14;;;;;;;9.07;3.60;;;;;;;;;;5056182;28;20037;-63
2021/04/15 03:23:04;;;;;;;9.73;4.13;;;;;;;;;;5071695;28;20047;-63
2021/04/15 03:25:49;;;;;;;7.93;3.83;;;;;;;;;;5055693;28;20044;-63
2021/04/15 03:28:35;;;;;;;4.82;2.60;;;;;;;;;;5055200;28;20455;-63
2021/04/15 03:31:24;;;;;;;10.05;3.85;;;;;;;;;;5056347;28;20055;-63
2021/04/15 03:34:15;;;;;;;7.22;2.85;;;;;;;;;;5056501;28;20051;-63
2021/04/15 03:37:01;;;;;;;8.68;3.25;;;;;;;;;;5055364;28;20138;-63
2021/04/15 03:39:46;;;;;;;5.25;3.47;;;;;;;;;;5056380;28;20041;-63
2021/04/15 03:42:38;;;;;;;5.32;2.40;;;;;;;;;;5071304;28;20401;-63
2021/04/15 03:45:26;;;;;;;9.85;2.92;;;;;;;;;;5059797;28;20504;-63
2021/04/15 03:48:12;;;;;;;8.82;4.43;;;;;;;;;;5057801;28;20041;-63
2021/04/15 03:50:59;;;;;;;12.70;6.18;;;;;;;;;;5059363;28;20040;-63
2021/04/15 03:53:46;;;;;;;13.50;6.07;;;;;;;;;;5059711;28;20068;-63
2021/04/15 03:56:31;;;;;;;15.77;5.95;;;;;;;;;;5058225;28;20074;-63
2021/04/15 03:59:24;;;;;;;19.15;6.40;;;;;;;;;;5074530;28;20044;-63
2021/04/15 04:02:11;;;;;;;11.85;5.03;;;;;;;;;;5059603;28;20059;-63
2021/04/15 04:05:06;;;;;;;6.85;4.50;;;;;;;;;;5060354;28;20245;-63
2021/04/15 04:08:02;;;;;;;17.35;6.60;;;;;;;;;;5058898;28;20079;-63
2021/04/15 04:10:47;;;;;;;39.33;11.27;;;;;;;;;;5074593;28;20123;-64
2021/04/15 04:13:33;;;;;;;185.55;21.05;;;;;;;;;;5074673;28;20048;-64
2021/04/15 04:16:20;;;;;;;316.00;31.30;;;;;;;;;;5074499;28;20478;-63
2021/04/15 04:19:15;;;;;;;93.40;13.27;;;;;;;;;;5073443;28;20048;-64
2021/04/15 04:22:06;;;;;;;50.97;10.52;;;;;;;;;;5059299;28;20045;-64
2021/04/15 04:25:10;;;;;;;75.07;12.10;;;;;;;;;;5074356;28;20052;-64
2021/04/15 04:27:58;;;;;;;112.90;13.20;;;;;;;;;;5073340;28;20384;-63
2021/04/15 04:30:43;;;;;;;182.52;16.85;;;;;;;;;;5058308;28;20523;-63
2021/04/15 04:33:44;;;;;;;75.70;9.85;;;;;;;;;;5074286;28;20058;-64
2021/04/15 04:36:30;;;;;;;35.25;9.40;;;;;;;;;;5059084;28;20125;-64
2021/04/15 04:39:16;;;;;;;49.03;9.65;;;;;;;;;;5056005;28;20757;-63
2021/04/15 04:42:01;;;;;;;54.60;11.90;;;;;;;;;;5059158;28;20045;-63
2021/04/15 04:44:53;;;;;;;128.93;19.23;;;;;;;;;;5073617;28;20044;-63
2021/04/15 04:47:41;;;;;;;90.80;15.20;;;;;;;;;;5073693;28;20429;-63
2021/04/15 04:50:42;;;;;;;96.85;15.10;;;;;;;;;;5072441;28;20486;-63
2021/04/15 04:53:29;;;;;;;59.42;11.15;;;;;;;;;;5058563;28;20049;-63
2021/04/15 04:56:31;;;;;;;73.65;15.85;;;;;;;;;;5059042;28;20131;-63
2021/04/15 04:59:26;;;;;;;76.45;15.82;;;;;;;;;;5072820;28;20032;-63
2021/04/15 05:02:12;;;;;;;64.57;15.63;;;;;;;;;;5057171;28;20045;-63
2021/04/15 05:05:05;;;;;;;67.63;17.55;;;;;;;;;;5041217;28;20049;-63
2021/04/15 05:07:51;;;;;;;46.83;13.98;;;;;;;;;;5054374;28;20044;-63
2021/04/15 05:10:36;;;;;;;64.30;17.00;;;;;;;;;;5049617;28;20045;-63
2021/04/15 05:13:23;;;;;;;47.28;16.27;;;;;;;;;;5044151;28;20045;-66
2021/04/15 05:16:09;;;;;;;41.90;16.20;;;;;;;;;;5057649;28;20122;-66
2021/04/15 05:18:54;;;;;;;44.53;14.65;;;;;;;;;;5071316;28;20462;-66
2021/04/15 05:21:42;;;;;;;25.45;11.57;;;;;;;;;;5057003;28;20047;-65
2021/04/15 05:24:27;;;;;;;32.60;13.68;;;;;;;;;;5058628;28;20044;-65
2021/04/15 05:27:12;;;;;;;38.80;14.13;;;;;;;;;;5073268;28;20558;-65
2021/04/15 05:30:10;;;;;;;29.45;12.35;;;;;;;;;;5043057;28;20171;-65
2021/04/15 05:32:56;;;;;;;42.47;16.75;;;;;;;;;;5037056;28;20120;-65
2021/04/15 05:35:43;;;;;;;35.53;15.95;;;;;;;;;;5038743;28;20045;-66
2021/04/15 05:38:29;;;;;;;29.30;13.05;;;;;;;;;;5054484;28;20063;-65
2021/04/15 05:41:45;;;;;;;38.22;15.75;;;;;;;;;;5047117;28;20033;-65
2021/04/15 05:44:31;;;;;;;28.67;12.77;;;;;;;;;;5014105;28;20057;-65
2021/04/15 05:47:17;;;;;;;30.85;13.25;;;;;;;;;;5075870;28;20049;-65
2021/04/15 05:50:05;;;;;;;31.17;13.63;;;;;;;;;;5060809;28;20056;-65
2021/04/15 05:52:55;;;;;;;28.15;13.82;;;;;;;;;;5058350;28;20153;-65
2021/04/15 05:55:52;;;;;;;26.90;13.10;;;;;;;;;;5057997;28;20048;-65
2021/04/15 05:58:39;;;;;;;30.33;13.82;;;;;;;;;;5073201;28;20048;-66
2021/04/15 06:01:32;;;;;;;22.95;11.18;;;;;;;;;;5055588;28;20209;-66
2021/04/15 06:04:20;;;;;;;22.00;9.52;;;;;;;;;;5072071;28;20149;-65
2021/04/15 06:07:05;;;;;;;31.75;14.80;;;;;;;;;;5071860;28;20048;-65
2021/04/15 06:09:51;;;;;;;26.77;11.80;;;;;;;;;;5054675;28;20056;-65
2021/04/15 06:12:54;;;;;;;31.10;13.65;;;;;;;;;;5071907;28;20041;-65
2021/04/15 06:15:42;;;;;;;26.48;13.30;;;;;;;;;;5072161;28;20123;-65
2021/04/15 06:18:36;;;;;;;26.58;14.25;;;;;;;;;;5055832;28;20102;-65
2021/04/15 06:21:21;;;;;;;;;;;;;;;;;;5057099;28;20052;-65
2021/04/15 06:24:07;;;;;;;21.08;11.00;;;;;;;;;;5072059;28;20058;-65
2021/04/15 06:26:53;;;;;;;20.35;11.95;;;;;;;;;;5056940;28;20438;-65
2021/04/15 06:29:50;;;;;;;24.80;12.80;;;;;;;;;;5052699;28;20102;-65
2021/04/15 06:32:39;;;;;;;21.75;12.55;;;;;;;;;;5070834;28;20061;-65
2021/04/15 06:35:29;;;;;;;16.30;10.48;;;;;;;;;;5056981;28;20044;-66
2021/04/15 06:38:29;;;;;;;23.88;12.57;;;;;;;;;;5072057;28;20041;-66
2021/04/15 06:41:23;;;;;;;18.25;9.55;;;;;;;;;;5054333;28;20037;-66
2021/04/15 06:44:08;;;;;;;;;;;;;;;;;;5056896;28;20442;-66
2021/04/15 06:47:06;;;;;;;15.80;7.88;;;;;;;;;;5071005;28;19920;-66
2021/04/15 06:50:00;;;;;;;19.10;7.22;;;;;;;;;;5068581;28;20048;-66
2021/04/15 06:52:51;;;;;;;12.07;6.38;;;;;;;;;;5068414;28;20076;-66
2021/04/15 06:55:39;;;;;;;9.23;5.82;;;;;;;;;;5051629;28;20049;-67
2021/04/15 06:58:28;;;;;;;10.30;5.35;;;;;;;;;;5051620;28;20056;-67
2021/04/15 07:01:13;;;;;;;9.35;5.47;;;;;;;;;;5074257;28;20513;-66
2021/04/15 07:04:10;;;;;;;11.07;4.45;;;;;;;;;;5071123;28;20052;-66
2021/04/15 07:07:07;;;;;;;7.60;4.22;;;;;;;;;;5056352;28;20426;-66
2021/04/15 07:10:16;;;;;;;10.13;3.95;;;;;;;;;;5045073;28;20452;-66
2021/04/15 07:13:19;;;;;;;10.43;4.35;;;;;;;;;;5036486;28;20047;-66
2021/04/15 07:16:05;;;;;;;6.15;3.53;;;;;;;;;;5037164;28;20402;-66
2021/04/15 07:18:52;;;;;;;13.45;4.68;;;;;;;;;;5053005;28;20044;-66
2021/04/15 07:21:46;;;;;;;9.15;4.03;;;;;;;;;;5061763;28;20567;-67
2021/04/15 07:24:31;;;;;;;8.18;4.20;;;;;;;;;;5075075;28;20044;-66
2021/04/15 07:27:35;;;;;;;8.45;3.70;;;;;;;;;;5075111;28;20052;-67
2021/04/15 07:30:39;;;;;;;13.02;4.78;;;;;;;;;;5074995;28;20461;-66
2021/04/15 07:33:28;;;;;;;10.55;4.65;;;;;;;;;;5073722;28;20082;-66
2021/04/15 07:36:18;;;;;;;13.65;5.03;;;;;;;;;;5059849;28;20413;-66
2021/04/15 07:39:08;;;;;;;8.30;3.60;;;;;;;;;;5059952;28;20036;-66
2021/04/15 07:41:59;;;;;;;8.65;4.90;;;;;;;;;;5058054;28;20556;-67
2021/04/15 07:44:46;;;;;;;12.80;4.50;;;;;;;;;;5074427;28;20052;-67
2021/04/15 07:47:31;;;;;;;10.95;4.70;;;;;;;;;;5059801;28;20129;-67
2021/04/15 07:50:35;;;;;;;10.45;4.05;;;;;;;;;;5074511;28;20052;-67
2021/04/15 07:53:24;;;;;;;10.20;4.50;;;;;;;;;;5072007;28;20041;-67
2021/04/15 07:56:15;;;;;;;11.10;4.90;;;;;;;;;;5059601;28;20037;-67
2021/04/15 07:59:03;;;;;;;11.70;4.68;;;;;;;;;;5074555;28;20123;-67
2021/04/15 08:01:59;;;;;;;5.90;2.88;;;;;;;;;;5074386;28;20048;-67
2021/04/15 08:05:03;;;;;;;7.95;3.65;;;;;;;;;;5052783;28;20041;-67
2021/04/15 08:07:48;;;;;;;;;;;;;;;;;;5039877;28;20053;-67
2021/04/15 08:10:33;;;;;;;8.50;3.80;;;;;;;;;;5054247;28;19921;-67
2021/04/15 08:13:29;;;;;;;9.52;3.40;;;;;;;;;;5061764;28;20037;-67
2021/04/15 08:16:31;;;;;;;10.00;2.88;;;;;;;;;;5059025;28;20044;-67
2021/04/15 08:19:23;;;;;;;4.25;2.40;;;;;;;;;;5059243;28;20114;-67
2021/04/15 08:22:09;;;;;;;6.50;3.38;;;;;;;;;;5074139;28;20044;-67
2021/04/15 08:25:04;;;;;;;5.97;2.40;;;;;;;;;;5056110;28;20558;-66
2021/04/15 08:27:52;;;;;;;6.90;3.63;;;;;;;;;;5057661;28;20040;-67
2021/04/15 08:30:54;;;;;;;6.85;2.92;;;;;;;;;;5071121;28;20044;-67
2021/04/15 08:33:50;;;;;;;8.13;3.65;;;;;;;;;;5058573;28;20079;-65
2021/04/15 08:36:36;;;;;;;5.43;3.70;;;;;;;;;;5058705;28;20564;-66
2021/04/15 08:39:33;;;;;;;7.88;3.58;;;;;;;;;;5058918;28;20094;-67
2021/04/15 08:42:31;;;;;;;7.80;2.97;;;;;;;;;;5071994;28;20044;-67
2021/04/15 08:45:36;;;;;;;7.00;2.60;;;;;;;;;;5044898;28;20135;-67
2021/04/15 08:48:24;;;;;;;5.93;2.90;;;;;;;;;;5044100;28;20426;-64
2021/04/15 08:51:28;;;;;;;6.03;2.38;;;;;;;;;;5058702;28;20534;-63
2021/04/15 08:54:20;;;;;;;5.63;2.30;;;;;;;;;;5059649;28;20521;-64
2021/04/15 08:57:11;;;;;;;8.60;4.00;;;;;;;;;;5060168;28;20045;-63
2021/04/15 08:59:58;;;;;;;5.25;2.72;;;;;;;;;;5074737;28;20487;-64
2021/04/15 09:02:49;;;;;;;6.97;3.28;;;;;;;;;;5057650;28;20495;-64
2021/04/15 09:06:04;;;;;;;6.03;3.00;;;;;;;;;;5073997;28;20049;-64
2021/04/15 09:09:01;;;;;;;5.35;2.85;;;;;;;;;;5014558;28;20040;-64
2021/04/15 09:11:55;;;;;;;6.60;2.70;;;;;;;;;;5060692;28;20052;-64
2021/04/15 09:14:40;;;;;;;6.05;2.83;;;;;;;;;;5061604;28;20045;-64
2021/04/15 09:17:31;;;;;;;6.65;2.30;;;;;;;;;;5075205;28;20044;-66
2021/04/15 09:20:36;;;;;;;4.78;2.22;;;;;;;;;;5075462;28;20049;-66
2021/04/15 09:23:34;;;;;;;4.10;1.95;;;;;;;;;;5057617;28;20049;-66
2021/04/15 09:26:25;;;;;;;6.95;2.67;;;;;;;;;;5075094;28;20082;-66
2021/04/15 09:29:29;;;;;;;5.07;2.22;;;;;;;;;;5058985;28;20044;-66
2021/04/15 09:32:19;;;;;;;5.30;2.00;;;;;;;;;;5056089;28;20052;-66
2021/04/15 09:35:07;;;;;;;4.25;1.70;;;;;;;;;;5073576;28;20045;-67
2021/04/15 09:37:55;;;;;;;1.73;1.00;;;;;;;;;;5075321;28;20040;-66
2021/04/15 09:40:45;;;;;;;4.20;1.85;;;;;;;;;;5061740;28;20549;-65
2021/04/15 09:43:40;;;;;;;3.80;1.77;;;;;;;;;;5052273;28;20091;-66
2021/04/15 09:46:34;;;;;;;4.15;1.35;;;;;;;;;;5075140;28;20044;-66
2021/04/15 09:49:22;;;;;;;3.90;1.50;;;;;;;;;;5076737;28;20486;-66
2021/04/15 09:52:17;;;;;;;6.88;1.70;;;;;;;;;;5073416;28;20075;-66
2021/04/15 09:55:08;;;;;;;4.20;1.58;;;;;;;;;;5060142;28;20111;-65
2021/04/15 09:57:57;;;;;;;4.07;1.27;;;;;;;;;;5060306;28;20426;-67
2021/04/15 10:00:52;;;;;;;2.53;1.05;;;;;;;;;;5058828;28;20452;-66
2021/04/15 10:03:48;;;;;;;4.57;1.10;;;;;;;;;;5061205;28;20075;-66
2021/04/15 10:06:35;;;;;;;5.90;1.55;;;;;;;;;;5053516;28;20057;-66
2021/04/15 10:09:23;;;;;;;5.50;1.40;;;;;;;;;;5053291;28;20049;-64
2021/04/15 10:12:38;;;;;;;2.78;1.15;;;;;;;;;;5052493;28;20048;-64
2021/04/15 10:15:32;;;;;;;3.20;1.27;;;;;;;;;;5051076;28;20132;-64
2021/04/15 10:18:36;;;;;;;2.10;1.45;;;;;;;;;;5055311;28;20044;-63
2021/04/15 10:21:25;;;;;;;4.60;1.70;;;;;;;;;;5054210;28;20063;-64
2021/04/15 10:24:25;;;;;;;2.08;1.15;;;;;;;;;;5055879;28;20041;-64
2021/04/15 10:27:24;;;;;;;3.65;1.50;;;;;;;;;;5057157;28;20044;-64
2021/04/15 10:30:14;;;;;;;5.18;1.55;;;;;;;;;;5054881;28;20049;-64
2021/04/15 10:33:00;;;;;;;2.83;1.20;;;;;;;;;;5053385;28;20057;-64
2021/04/15 10:36:04;;;;;;;2.70;1.10;;;;;;;;;;5055187;28;20048;-64
2021/04/15 10:39:01;;;;;;;4.55;1.52;;;;;;;;;;5055133;28;20403;-64
2021/04/15 10:42:05;;;;;;;4.88;1.48;;;;;;;;;;5054124;28;20048;-64
2021/04/15 10:44:50;;;;;;;4.03;1.55;;;;;;;;;;5020390;28;20046;-64
2021/04/15 10:47:35;;;;;;;4.70;1.42;;;;;;;;;;5038023;28;20049;-64
2021/04/15 10:50:40;;;;;;;2.40;1.30;;;;;;;;;;5036201;28;20041;-64
2021/04/15 10:53:44;;;;;;;3.05;1.40;;;;;;;;;;5019193;28;20492;-64
2021/04/15 10:56:29;;;;;;;3.80;1.42;;;;;;;;;;5035540;28;20045;-64
2021/04/15 10:59:36;;;;;;;4.57;1.20;;;;;;;;;;5020511;28;20034;-64
2021/04/15 11:02:34;;;;;;;2.22;1.60;;;;;;;;;;5033383;28;20116;-64
2021/04/15 11:05:22;;;;;;;2.00;1.02;;;;;;;;;;5017976;28;20103;-64
2021/04/15 11:08:10;;;;;;;4.45;1.40;;;;;;;;;;5035477;28;20057;-64
2021/04/15 11:11:11;;;;;;;4.70;1.10;;;;;;;;;;5035123;28;20053;-64
2021/04/15 11:14:02;;;;;;;3.15;1.20;;;;;;;;;;5044012;28;20052;-64
2021/04/15 11:16:48;;;;;;;2.05;1.25;;;;;;;;;;5053845;28;20057;-64
2021/04/15 11:19:34;;;;;;;3.53;1.02;;;;;;;;;;5053820;28;20499;-64
2021/04/15 11:22:22;;;;;;;4.57;1.02;;;;;;;;;;5054239;28;20057;-64
2021/04/15 11:25:22;;;;;;;2.80;1.40;;;;;;;;;;5051669;28;20049;-64
2021/04/15 11:28:28;;;;;;;2.22;0.82;;;;;;;;;;5055037;28;20049;-64
2021/04/15 11:31:14;;;;;;;1.90;1.02;;;;;;;;;;5054667;28;20045;-64
2021/04/15 11:34:09;;;;;;;3.63;1.23;;;;;;;;;;5053629;28;20413;-64
2021/04/15 11:37:03;;;;;;;3.17;0.95;;;;;;;;;;5053527;28;20047;-64
2021/04/15 11:39:47;;;;;;;;;;;;;;;;;;5039983;28;20049;-64
2021/04/15 11:42:35;;;;;;;2.38;1.02;;;;;;;;;;5054884;28;19964;-64
2021/04/15 11:45:47;;;;;;;2.95;0.77;;;;;;;;;;5051957;28;20041;-64
2021/04/15 11:48:33;;;;;;;2.25;1.55;;;;;;;;;;5054325;28;20057;-64
2021/04/15 11:51:21;;;;;;;2.30;1.02;;;;;;;;;;5039426;28;20053;-64
2021/04/15 11:54:11;;;;;;;2.65;1.00;;;;;;;;;;5039494;28;20574;-64
2021/04/15 11:56:57;;;;;;;2.10;1.20;;;;;;;;;;5038554;28;20123;-64
2021/04/15 11:59:42;;;;;;;2.65;1.30;;;;;;;;;;5052710;28;20045;-64
2021/04/15 12:02:31;;;;;;;4.28;1.23;;;;;;;;;;5054904;28;20056;-63
2021/04/15 12:05:16;;;;;;;5.47;1.30;;;;;;;;;;5054896;28;20052;-63
2021/04/15 12:08:03;;;;;;;4.63;1.30;;;;;;;;;;5054239;28;20041;-63
2021/04/15 12:10:51;;;;;;;2.50;1.10;;;;;;;;;;5053788;28;20136;-63
2021/04/15 12:13:49;;;;;;;6.18;1.30;;;;;;;;;;5054099;28;20049;-63
2021/04/15 12:16:50;;;;;;;2.38;1.23;;;;;;;;;;5053747;28;20044;-63
2021/04/15 12:19:35;;;;;;;1.30;0.63;;;;;;;;;;5052863;28;20045;-63
2021/04/15 12:22:21;;;;;;;1.75;0.80;;;;;;;;;;5055069;28;20450;-63
2021/04/15 12:25:06;;;;;;;3.13;1.20;;;;;;;;;;5054491;28;20041;-63
2021/04/15 12:27:53;;;;;;;2.60;1.00;;;;;;;;;;5053559;28;20053;-63
2021/04/15 12:30:38;;;;;;;1.90;0.75;;;;;;;;;;5052658;28;20049;-63
2021/04/15 12:33:26;;;;;;;3.80;0.77;;;;;;;;;;5053053;28;20388;-63
2021/04/15 12:36:16;;;;;;;3.42;1.35;;;;;;;;;;5052867;28;20060;-63
2021/04/15 12:39:08;;;;;;;1.83;1.05;;;;;;;;;;5053210;28;20048;-65
2021/04/15 12:41:54;;;;;;;2.75;1.00;;;;;;;;;;5053496;28;20407;-66
2021/04/15 12:44:40;;;;;;;2.85;1.23;;;;;;;;;;5051821;28;20072;-66
2021/04/15 12:47:30;;;;;;;4.78;1.50;;;;;;;;;;5053004;28;20071;-65
2021/04/15 12:50:15;;;;;;;2.92;1.27;;;;;;;;;;5053635;28;20072;-66
2021/04/15 12:53:00;;;;;;;5.45;2.03;;;;;;;;;;5055950;28;20128;-66
2021/04/15 12:55:45;;;;;;;4.65;1.98;;;;;;;;;;5056135;28;20041;-64
2021/04/15 12:58:31;;;;;;;2.95;1.42;;;;;;;;;;5055474;28;20132;-65
2021/04/15 13:01:16;;;;;;;2.10;1.23;;;;;;;;;;5035054;28;20053;-65
2021/04/15 13:04:34;;;;;;;2.13;1.10;;;;;;;;;;5055216;28;20045;-66
2021/04/15 13:07:22;;;;;;;7.35;1.55;;;;;;;;;;5005313;28;20048;-65
2021/04/15 13:10:17;;;;;;;3.22;0.90;;;;;;;;;;5051787;28;20045;-65
2021/04/15 13:13:02;;;;;;;2.83;1.17;;;;;;;;;;5055704;28;20155;-64
2021/04/15 13:15:47;;;;;;;4.82;1.30;;;;;;;;;;5054159;28;20531;-66
2021/04/15 13:18:34;;;;;;;3.03;0.77;;;;;;;;;;5054988;28;20041;-65
2021/04/15 13:21:26;;;;;;;3.03;1.27;;;;;;;;;;5052096;28;20048;-65
2021/04/15 13:24:12;;;;;;;;;;;;;;;;;;5039346;28;20048;-65
2021/04/15 13:27:03;;;;;;;3.58;1.00;;;;;;;;;;5055340;28;19978;-65
2021/04/15 13:30:07;;;;;;;4.30;1.25;;;;;;;;;;5054861;28;20053;-65
2021/04/15 13:33:12;;;;;;;2.92;1.17;;;;;;;;;;5035416;28;20117;-66
2021/04/15 13:36:00;;;;;;;2.25;1.20;;;;;;;;;;5037696;28;20079;-65
2021/04/15 13:38:58;;;;;;;5.35;1.13;;;;;;;;;;5035799;28;20041;-65
2021/04/15 13:41:56;;;;;;;2.40;0.95;;;;;;;;;;5048497;28;20045;-65
2021/04/15 13:44:50;;;;;;;3.63;1.23;;;;;;;;;;5055720;28;20046;-65
2021/04/15 13:47:45;;;;;;;3.42;1.20;;;;;;;;;;5055572;28;20049;-65
2021/04/15 13:50:49;;;;;;;1.45;0.85;;;;;;;;;;5052941;28;20045;-66
2021/04/15 13:53:46;;;;;;;3.40;1.13;;;;;;;;;;5032261;28;20041;-65
2021/04/15 13:56:33;;;;;;;1.77;0.90;;;;;;;;;;5033310;28;20068;-66
2021/04/15 13:59:41;;;;;;;3.20;1.40;;;;;;;;;;5001892;28;20053;-64
2021/04/15 14:02:26;;;;;;;1.95;0.75;;;;;;;;;;5046341;28;20041;-65
2021/04/15 14:05:34;;;;;;;3.38;0.75;;;;;;;;;;5054977;28;20044;-65
2021/04/15 14:08:31;;;;;;;5.35;0.90;;;;;;;;;;5041124;28;20075;-65
2021/04/15 14:11:47;;;;;;;2.95;1.13;;;;;;;;;;5054005;28;20053;-65
2021/04/15 14:14:37;;;;;;;3.72;1.23;;;;;;;;;;5029849;28;20061;-65
2021/04/15 14:17:24;;;;;;;2.70;1.00;;;;;;;;;;5017786;28;20054;-66
2021/04/15 14:20:18;;;;;;;7.80;1.60;;;;;;;;;;5017971;28;20041;-66
2021/04/15 14:23:04;;;;;;;2.88;1.20;;;;;;;;;;5017127;28;20420;-66
2021/04/15 14:25:50;;;;;;;2.30;1.00;;;;;;;;;;5033196;28;20045;-66
2021/04/15 14:28:35;;;;;;;4.72;1.73;;;;;;;;;;5031622;28;20460;-66
2021/04/15 14:31:25;;;;;;;4.47;1.30;;;;;;;;;;5033705;28;20053;-66
2021/04/15 14:34:21;;;;;;;2.80;1.55;;;;;;;;;;5049634;28;20111;-66
2021/04/15 14:37:16;;;;;;;3.25;1.38;;;;;;;;;;5052690;28;20041;-66
2021/04/15 14:40:03;;;;;;;6.07;2.08;;;;;;;;;;5050840;28;20037;-65
2021/04/15 14:42:48;;;;;;;2.17;1.60;;;;;;;;;;5050763;28;20530;-66
2021/04/15 14:45:35;;;;;;;3.38;1.60;;;;;;;;;;5049372;28;20578;-66
2021/04/15 14:48:27;;;;;;;3.33;1.50;;;;;;;;;;5051787;28;20053;-66
2021/04/15 14:51:30;;;;;;;5.22;2.20;;;;;;;;;;5051479;28;20044;-66
2021/04/15 14:54:25;;;;;;;2.53;1.60;;;;;;;;;;5050348;28;20045;-65
2021/04/15 14:57:18;;;;;;;3.90;1.70;;;;;;;;;;5051877;28;20118;-65
2021/04/15 15:00:06;;;;;;;3.47;1.25;;;;;;;;;;5049464;28;20041;-65
2021/04/15 15:02:54;;;;;;;4.07;1.85;;;;;;;;;;5051454;28;20045;-64
2021/04/15 15:05:41;;;;;;;1.77;1.17;;;;;;;;;;5051828;28;20041;-65
2021/04/15 15:08:27;;;;;;;2.67;1.88;;;;;;;;;;5051765;28;20415;-65
2021/04/15 15:11:12;;;;;;;2.97;1.55;;;;;;;;;;5050866;28;20491;-64
2021/04/15 15:13:57;;;;;;;3.00;1.50;;;;;;;;;;5053876;28;20049;-65
2021/04/15 15:16:42;;;;;;;4.85;2.13;;;;;;;;;;5039572;28;20049;-65
2021/04/15 15:19:31;;;;;;;2.80;1.40;;;;;;;;;;5054729;28;20407;-65
2021/04/15 15:22:31;;;;;;;2.38;1.77;;;;;;;;;;5053746;28;20041;-65
2021/04/15 15:25:29;;;;;;;2.78;1.67;;;;;;;;;;5055806;28;20079;-65
2021/04/15 15:28:21;;;;;;;3.03;1.60;;;;;;;;;;5056306;28;20048;-66
2021/04/15 15:31:14;;;;;;;2.87;1.80;;;;;;;;;;5052736;28;20049;-65
2021/04/15 15:34:12;;;;;;;1.40;1.27;;;;;;;;;;5034167;28;20049;-64
2021/04/15 15:37:12;;;;;;;4.32;1.92;;;;;;;;;;5034479;28;20041;-65
2021/04/15 15:39:57;;;;;;;3.72;1.48;;;;;;;;;;5033615;28;20081;-65
2021/04/15 15:42:51;;;;;;;3.08;1.80;;;;;;;;;;5046359;28;20594;-65
2021/04/15 15:45:48;;;;;;;2.15;1.55;;;;;;;;;;5056226;28;20053;-65
2021/04/15 15:48:46;;;;;;;2.70;1.42;;;;;;;;;;5055935;28;20112;-65
2021/04/15 15:51:31;;;;;;;2.22;1.10;;;;;;;;;;5055704;28;20545;-65
2021/04/15 15:54:25;;;;;;;2.70;1.58;;;;;;;;;;5055737;28;20123;-65
2021/04/15 15:57:10;;;;;;;3.60;1.48;;;;;;;;;;5056031;28;20045;-65
2021/04/15 15:59:56;;;;;;;2.50;1.33;;;;;;;;;;5056211;28;20415;-65
2021/04/15 16:02:44;;;;;;;3.45;1.23;;;;;;;;;;5054855;28;20483;-66
2021/04/15 16:05:30;;;;;;;1.83;0.90;;;;;;;;;;5055173;28;20096;-65
2021/04/15 16:08:21;;;;;;;1.55;1.20;;;;;;;;;;5031202;28;20053;-64
2021/04/15 16:11:25;;;;;;;2.13;1.13;;;;;;;;;;5029704;28;20044;-65
2021/04/15 16:14:11;;;;;;;2.38;1.30;;;;;;;;;;5046963;28;20419;-64
2021/04/15 16:16:56;;;;;;;1.50;1.08;;;;;;;;;;5042500;28;20084;-65
2021/04/15 16:19:41;;;;;;;2.00;1.20;;;;;;;;;;5046221;28;20697;-65
2021/04/15 16:22:27;;;;;;;2.90;1.33;;;;;;;;;;5053232;28;20048;-65
2021/04/15 16:25:12;;;;;;;1.38;1.00;;;;;;;;;;5052281;28;20420;-65
2021/04/15 16:27:57;;;;;;;4.60;1.80;;;;;;;;;;5041980;28;20061;-65
2021/04/15 16:30:43;;;;;;;1.75;0.90;;;;;;;;;;5052045;28;20586;-66
2021/04/15 16:33:28;;;;;;;1.02;0.80;;;;;;;;;;5051325;28;20052;-65
2021/04/15 16:36:13;;;;;;;1.58;1.13;;;;;;;;;;5053218;28;20458;-64
2021/04/15 16:38:58;;;;;;;1.42;0.80;;;;;;;;;;5036730;28;20049;-65
2021/04/15 16:41:43;;;;;;;1.67;0.80;;;;;;;;;;5050771;28;20068;-65
2021/04/15 16:44:29;;;;;;;2.00;0.63;;;;;;;;;;5049828;28;20435;-65
2021/04/15 16:47:14;;;;;;;1.13;0.45;;;;;;;;;;5031961;28;20415;-65
2021/04/15 16:50:00;;;;;;;1.05;0.77;;;;;;;;;;5033061;28;20041;-64
2021/04/15 16:52:46;;;;;;;1.45;0.38;;;;;;;;;;5051689;28;20056;-64
2021/04/15 16:55:31;;;;;;;0.68;0.38;;;;;;;;;;5037298;28;20095;-65
2021/04/15 16:58:16;;;;;;;1.45;0.40;;;;;;;;;;5058955;22;20077;-64